Time;durP1;ratioP1;P1;durP2;ratioP2;P2;SDS_P1;SDS_P2;PMS_P1;PMS_P2;Temp;Humidity;BMP_temperature;BMP_pressure;BME280_temperature;BME280_humidity;BME280_pressure;Samples;Min_cycle;Max_cycle;Signal;HPM_P1;HPM_P2
2022/12/27 00:02:15;;;;;;;7.47;2.83;;;7.50;85.00;;;;;;5017303;28;20239;-95
2022/12/27 00:07:32;;;;;;;14.50;4.00;;;7.50;84.80;;;;;;5011341;28;20203;-96
2022/12/27 00:10:29;;;;;;;7.33;2.47;;;7.50;85.00;;;;;;5018026;28;20302;-96
2022/12/27 00:13:22;;;;;;;6.60;2.03;;;7.50;85.30;;;;;;5014700;28;20283;-95
2022/12/27 00:16:01;;;;;;;8.30;2.87;;;7.50;85.10;;;;;;5016759;28;20211;-96
2022/12/27 00:18:51;;;;;;;11.07;2.63;;;7.50;85.10;;;;;;5016433;28;20206;-96
2022/12/27 00:21:43;;;;;;;11.13;2.87;;;7.50;85.20;;;;;;5014145;28;20256;-96
2022/12/27 00:24:40;;;;;;;8.27;2.70;;;7.50;85.20;;;;;;5001070;28;20235;-96
2022/12/27 00:27:19;;;;;;;12.47;3.37;;;7.50;85.40;;;;;;5029862;28;20206;-96
2022/12/27 00:33:58;;;;;;;9.40;2.60;;;7.50;85.50;;;;;;5000877;28;20216;-96
2022/12/27 00:40:00;;;;;;;6.50;2.00;;;7.50;85.80;;;;;;5015691;28;20250;-96
2022/12/27 00:42:49;;;;;;;8.80;2.00;;;7.50;86.20;;;;;;5026533;28;20234;-96
2022/12/27 00:51:48;;;;;;;10.27;3.10;;;7.60;86.60;;;;;;5015854;28;20289;-96
2022/12/27 00:58:22;;;;;;;7.03;2.37;;;7.60;87.00;;;;;;4990648;28;20299;-95
2022/12/27 01:01:29;;;;;;;12.57;3.33;;;7.60;87.10;;;;;;4992039;28;20219;-96
2022/12/27 01:04:34;;;;;;;7.67;2.30;;;7.60;87.00;;;;;;4995493;28;20208;-96
2022/12/27 01:14:17;;;;;;;12.87;3.30;;;7.60;87.40;;;;;;4975532;28;20216;-95
2022/12/27 01:17:36;;;;;;;;;;;;;;;;;;;;;
2022/12/27 01:33:07;;;;;;;8.50;1.93;;;7.70;88.40;;;;;;5005907;28;20238;-96
2022/12/27 01:45:47;;;;;;;12.10;3.13;;;7.80;89.00;;;;;;4997447;28;20349;-96
2022/12/27 01:57:46;;;;;;;10.40;2.23;;;8.00;88.60;;;;;;4976621;28;20297;-96
2022/12/27 02:10:28;;;;;;;7.57;1.90;;;8.10;88.20;;;;;;4940600;29;20220;-96
2022/12/27 02:13:31;;;;;;;7.17;2.13;;;8.20;88.10;;;;;;5000643;28;20285;-96
2022/12/27 02:16:28;;;;;;;9.87;2.53;;;8.10;88.00;;;;;;4982648;28;20227;-96
2022/12/27 02:29:30;;;;;;;4.83;1.63;;;8.20;87.80;;;;;;5015078;28;20217;-96
2022/12/27 02:53:02;;;;;;;10.50;3.07;;;8.20;87.60;;;;;;5009479;28;20260;-96
2022/12/27 03:07:06;;;;;;;5.40;1.90;;;8.10;86.80;;;;;;5171891;23;20727;-95
2022/12/27 03:43:35;;;;;;;12.53;2.57;;;8.00;87.00;;;;;;4900333;29;20229;-96
2022/12/27 04:03:49;;;;;;;11.37;2.63;;;7.80;86.60;;;;;;4972846;28;20267;-96
2022/12/27 05:27:15;;;;;;;6.23;2.23;;;7.50;90.00;;;;;;4903241;29;20277;-95
2022/12/27 05:33:27;;;;;;;11.03;2.90;;;7.50;90.00;;;;;;4886034;29;20330;-95
2022/12/27 05:36:40;;;;;;;;;;;;;;;;;;;;;
2022/12/27 06:02:57;;;;;;;8.50;2.90;;;7.50;90.20;;;;;;4884679;29;20259;-96
2022/12/27 06:20:13;;;;;;;15.67;4.20;;;7.40;90.20;;;;;;4876841;29;20253;-95
2022/12/27 06:30:09;;;;;;;6.17;2.50;;;7.40;90.30;;;;;;4920241;29;20206;-96
2022/12/27 06:51:15;;;;;;;;;;;;;;;;;;;;;
2022/12/27 06:57:45;;;;;;;19.30;4.27;;;7.30;90.70;;;;;;4775036;29;20223;-96
2022/12/27 07:33:32;;;;;;;15.93;4.43;;;7.30;92.20;;;;;;4975602;28;20253;-96
2022/12/27 07:36:13;;;;;;;9.40;3.80;;;7.30;92.50;;;;;;4966704;28;20225;-96
2022/12/27 07:38:54;;;;;;;10.77;3.53;;;7.30;92.40;;;;;;4965476;28;20210;-96
2022/12/27 07:41:42;;;;;;;11.53;3.60;;;7.30;92.30;;;;;;4962319;28;20321;-96
2022/12/27 07:44:22;;;;;;;6.87;3.00;;;7.30;92.40;;;;;;4963172;28;20265;-96
2022/12/27 07:47:04;;;;;;;8.83;3.43;;;7.40;92.50;;;;;;4960680;29;20240;-96
2022/12/27 07:49:59;;;;;;;9.53;3.63;;;7.40;92.40;;;;;;4965270;29;20209;-96
2022/12/27 07:53:07;;;;;;;11.50;3.57;;;7.40;92.60;;;;;;4964334;28;20198;-96
2022/12/27 07:55:55;;;;;;;9.03;3.90;;;7.40;92.70;;;;;;4925272;28;20241;-96
2022/12/27 08:05:13;;;;;;;;;;;;;;;;;;;;;
2022/12/27 08:08:37;;;;;;;11.13;3.97;;;7.50;92.90;;;;;;5016128;28;20245;-95
2022/12/27 08:11:22;;;;;;;13.57;4.53;;;7.50;92.90;;;;;;5007696;28;20208;-96
2022/12/27 08:13:50;;;;;;;7.67;3.67;;;7.50;92.80;;;;;;5029757;28;20232;-96
2022/12/27 08:16:49;;;;;;;7.90;3.20;;;7.50;92.50;;;;;;5021178;28;20203;-95
2022/12/27 08:19:29;;;;;;;6.13;2.90;;;7.50;92.90;;;;;;5026428;28;20274;-96
2022/12/27 08:22:16;;;;;;;8.97;3.40;;;7.50;92.90;;;;;;5015509;28;20219;-96
2022/12/27 08:27:46;;;;;;;8.13;3.47;;;7.60;93.00;;;;;;4978102;28;21078;-95
2022/12/27 08:30:28;;;;;;;8.07;3.37;;;7.50;92.70;;;;;;5016449;28;20232;-95
2022/12/27 08:33:05;;;;;;;8.67;3.70;;;7.60;92.80;;;;;;5015940;28;20270;-96
2022/12/27 08:35:40;;;;;;;15.00;4.80;;;7.60;92.90;;;;;;5016303;28;20704;-96
2022/12/27 08:38:10;;;;;;;7.67;4.03;;;7.60;92.90;;;;;;5029275;28;20220;-96
2022/12/27 08:43:33;;;;;;;13.43;4.63;;;7.60;93.10;;;;;;5022665;28;20235;-96
2022/12/27 08:46:11;;;;;;;5.10;2.60;;;7.70;93.00;;;;;;5021167;28;20244;-96
2022/12/27 08:48:58;;;;;;;9.80;3.50;;;7.70;93.00;;;;;;5006168;28;21018;-96
2022/12/27 08:51:51;;;;;;;9.17;3.70;;;7.70;93.20;;;;;;5024163;28;20212;-96
2022/12/27 08:54:24;;;;;;;9.70;3.17;;;7.70;93.20;;;;;;5033409;28;20219;-96
2022/12/27 08:56:58;;;;;;;6.00;3.07;;;7.80;93.10;;;;;;5008141;28;20206;-95
2022/12/27 08:59:43;;;;;;;8.37;3.40;;;7.70;93.20;;;;;;5018291;28;20284;-95
2022/12/27 09:02:29;;;;;;;10.17;3.93;;;7.80;93.30;;;;;;5025230;28;20219;-96
2022/12/27 09:08:04;;;;;;;9.73;3.40;;;7.80;93.40;;;;;;5022389;28;20268;-96
2022/12/27 09:10:34;;;;;;;7.43;3.03;;;7.90;93.50;;;;;;5028559;28;20214;-96
2022/12/27 09:13:18;;;;;;;8.17;2.97;;;7.90;93.50;;;;;;5036626;28;20739;-96
2022/12/27 09:15:45;;;;;;;14.90;4.37;;;7.90;93.80;;;;;;5037919;28;20211;-95
2022/12/27 09:18:15;;;;;;;7.07;3.10;;;7.90;93.50;;;;;;5033578;28;20201;-96
2022/12/27 09:20:48;;;;;;;12.23;4.13;;;8.00;93.60;;;;;;5040921;28;20207;-96
2022/12/27 09:23:23;;;;;;;11.00;2.87;;;8.00;93.80;;;;;;5042345;28;20208;-96
2022/12/27 09:26:09;;;;;;;8.47;2.83;;;8.00;94.10;;;;;;5030922;28;20208;-96
2022/12/27 09:28:41;;;;;;;11.30;3.13;;;8.10;94.20;;;;;;5004724;28;20199;-96
2022/12/27 09:31:28;;;;;;;8.23;2.77;;;8.10;94.20;;;;;;5019124;28;20213;-96
2022/12/27 09:33:59;;;;;;;10.33;3.27;;;8.20;94.40;;;;;;5019794;28;20218;-96
2022/12/27 09:36:34;;;;;;;5.77;3.13;;;8.20;94.40;;;;;;5015245;28;20208;-96
2022/12/27 09:39:08;;;;;;;10.30;3.30;;;8.30;94.70;;;;;;5026233;28;20241;-95
2022/12/27 09:41:47;;;;;;;6.87;3.30;;;8.30;94.70;;;;;;5013543;28;20715;-96
2022/12/27 09:44:25;;;;;;;11.13;3.73;;;8.40;95.00;;;;;;5030417;28;20268;-96
2022/12/27 09:47:22;;;;;;;9.20;3.30;;;8.40;95.10;;;;;;5034714;28;20239;-96
2022/12/27 09:50:06;;;;;;;6.03;2.57;;;8.50;95.30;;;;;;5023251;28;20693;-96
2022/12/27 09:52:54;;;;;;;7.40;2.53;;;8.60;94.90;;;;;;5021551;28;20288;-96
2022/12/27 09:55:36;;;;;;;8.33;3.07;;;8.70;95.00;;;;;;5018035;28;20209;-95
2022/12/27 09:58:13;;;;;;;16.50;5.07;;;8.80;94.90;;;;;;5019299;28;20213;-96
2022/12/27 10:00:56;;;;;;;9.20;3.87;;;8.90;94.80;;;;;;5025078;28;20216;-96
2022/12/27 10:03:26;;;;;;;8.60;3.33;;;8.90;94.70;;;;;;5003609;28;20206;-96
2022/12/27 10:06:14;;;;;;;8.43;2.73;;;9.00;94.40;;;;;;5019594;28;20256;-96
2022/12/27 10:08:51;;;;;;;12.53;3.37;;;9.10;94.40;;;;;;5030468;28;20237;-96
2022/12/27 10:12:09;;;;;;;11.47;3.47;;;9.10;94.10;;;;;;5028226;28;20208;-96
2022/12/27 10:14:58;;;;;;;12.97;3.93;;;9.10;94.20;;;;;;5015386;28;20225;-95
2022/12/27 10:17:44;;;;;;;12.57;3.87;;;9.20;93.70;;;;;;5028267;28;20216;-94
2022/12/27 10:20:30;;;;;;;5.90;2.50;;;9.20;93.60;;;;;;5029145;28;20219;-95
2022/12/27 10:23:14;;;;;;;9.40;3.57;;;9.30;93.40;;;;;;5028824;28;20206;-95
2022/12/27 10:25:58;;;;;;;5.70;2.27;;;9.30;93.20;;;;;;5027985;28;20208;-96
2022/12/27 10:28:41;;;;;;;6.83;2.57;;;9.30;93.20;;;;;;5029286;28;20222;-96
2022/12/27 10:31:17;;;;;;;9.63;3.03;;;9.30;93.20;;;;;;5029375;28;20208;-95
2022/12/27 10:33:54;;;;;;;6.80;2.80;;;9.30;93.00;;;;;;5023239;28;20255;-96
2022/12/27 10:36:26;;;;;;;9.80;3.20;;;9.30;93.00;;;;;;5019070;28;20278;-95
2022/12/27 10:39:09;;;;;;;15.60;4.27;;;9.40;93.00;;;;;;5007343;28;20205;-95
2022/12/27 10:41:51;;;;;;;5.73;2.10;;;9.40;93.00;;;;;;5012462;28;20256;-96
2022/12/27 10:44:31;;;;;;;13.63;4.20;;;9.40;92.90;;;;;;5011883;28;20764;-96
2022/12/27 10:47:05;;;;;;;9.37;3.80;;;9.40;92.90;;;;;;5017663;28;20234;-96
2022/12/27 10:49:35;;;;;;;14.93;4.57;;;9.40;92.80;;;;;;5025733;28;20213;-95
2022/12/27 10:52:11;;;;;;;6.33;2.77;;;9.50;92.70;;;;;;4985525;28;20651;-96
2022/12/27 10:54:53;;;;;;;11.73;3.43;;;9.50;92.80;;;;;;5003533;28;20300;-96
2022/12/27 10:57:31;;;;;;;8.20;2.83;;;9.50;92.90;;;;;;5021484;28;20224;-95
2022/12/27 11:00:19;;;;;;;13.50;3.97;;;9.50;92.80;;;;;;5025745;28;20209;-96
2022/12/27 11:05:34;;;;;;;8.70;3.33;;;9.60;92.70;;;;;;5023305;28;20224;-96
2022/12/27 11:08:20;;;;;;;8.50;3.37;;;9.50;92.60;;;;;;4999752;28;20298;-95
2022/12/27 11:13:40;;;;;;;11.80;3.80;;;9.60;92.70;;;;;;5014507;28;21135;-96
2022/12/27 11:19:22;;;;;;;14.80;4.43;;;9.60;92.70;;;;;;5007513;28;20205;-95
2022/12/27 11:21:58;;;;;;;10.67;3.67;;;9.60;92.90;;;;;;5010195;28;20201;-95
2022/12/27 11:24:29;;;;;;;18.43;5.90;;;9.60;92.90;;;;;;5006903;28;20212;-96
2022/12/27 11:27:01;;;;;;;7.67;3.90;;;9.60;92.80;;;;;;5018318;28;20229;-95
2022/12/27 11:32:33;;;;;;;6.70;3.17;;;9.60;93.00;;;;;;5023919;28;20209;-95
2022/12/27 11:35:04;;;;;;;7.23;3.33;;;9.60;93.00;;;;;;5018541;28;20205;-93
2022/12/27 11:37:40;;;;;;;5.43;3.10;;;9.70;93.20;;;;;;5024255;28;20224;-95
2022/12/27 11:40:29;;;;;;;9.97;3.07;;;9.70;93.30;;;;;;5025427;28;20693;-96
2022/12/27 11:43:08;;;;;;;11.77;4.13;;;9.70;93.40;;;;;;5020592;28;20262;-96
2022/12/27 11:45:45;;;;;;;9.50;3.63;;;9.80;93.40;;;;;;5021141;28;20240;-95
2022/12/27 11:48:25;;;;;;;6.40;3.23;;;9.80;93.40;;;;;;5024900;28;20236;-95
2022/12/27 11:51:10;;;;;;;8.90;3.47;;;9.80;93.50;;;;;;5012384;28;20212;-94
2022/12/27 11:54:10;;;;;;;11.60;4.27;;;9.80;93.70;;;;;;5016154;28;20213;-95
2022/12/27 11:56:45;;;;;;;9.43;3.57;;;9.80;94.00;;;;;;5028238;28;20266;-96
2022/12/27 12:02:43;;;;;;;14.20;4.73;;;9.90;93.80;;;;;;5004870;28;20221;-95
2022/12/27 12:05:43;;;;;;;9.23;3.77;;;9.90;94.00;;;;;;5000511;28;20220;-96
2022/12/27 12:08:33;;;;;;;11.90;3.93;;;10.00;93.40;;;;;;5003711;28;20237;-95
2022/12/27 12:11:15;;;;;;;10.63;4.17;;;10.00;93.40;;;;;;5011513;28;20655;-96
2022/12/27 12:14:20;;;;;;;11.07;3.93;;;10.10;93.30;;;;;;5015018;28;20227;-95
2022/12/27 12:17:24;;;;;;;11.00;3.77;;;10.10;93.20;;;;;;5015006;28;20206;-96
2022/12/27 12:20:24;;;;;;;15.90;4.30;;;10.10;93.20;;;;;;5003625;28;20220;-94
2022/12/27 12:23:10;;;;;;;9.03;2.70;;;10.10;93.20;;;;;;5024385;28;20240;-95
2022/12/27 12:26:15;;;;;;;8.23;3.63;;;10.20;93.10;;;;;;5020464;28;20214;-95
2022/12/27 12:29:30;;;;;;;10.13;3.67;;;10.20;93.20;;;;;;5004047;28;20236;-94
2022/12/27 12:32:24;;;;;;;15.00;4.97;;;10.30;93.10;;;;;;4998418;28;20197;-95
2022/12/27 12:35:30;;;;;;;7.63;3.43;;;10.30;93.20;;;;;;5003577;28;20248;-94
2022/12/27 12:38:30;;;;;;;12.73;4.17;;;10.30;92.90;;;;;;5017521;28;20662;-95
2022/12/27 12:41:24;;;;;;;15.60;5.10;;;10.40;92.80;;;;;;5008386;28;20233;-94
2022/12/27 12:44:30;;;;;;;13.20;4.80;;;10.40;92.80;;;;;;4983482;28;20239;-96
2022/12/27 12:47:08;;;;;;;14.27;4.77;;;10.50;92.70;;;;;;5003795;28;20207;-95
2022/12/27 12:49:59;;;;;;;8.43;4.03;;;10.50;92.50;;;;;;5004954;28;20201;-94
2022/12/27 12:52:45;;;;;;;13.00;4.23;;;10.60;92.50;;;;;;5025816;28;20213;-95
2022/12/27 12:55:38;;;;;;;11.27;4.07;;;10.60;92.30;;;;;;5022362;28;20233;-96
2022/12/27 12:58:17;;;;;;;9.53;3.37;;;10.60;92.40;;;;;;5020520;28;20221;-95
2022/12/27 13:01:06;;;;;;;13.13;3.90;;;10.70;92.00;;;;;;5027123;28;20209;-95
2022/12/27 13:04:11;;;;;;;8.23;3.60;;;10.70;92.10;;;;;;5025176;28;20248;-96
2022/12/27 13:07:01;;;;;;;10.40;3.83;;;10.70;92.00;;;;;;5009857;28;20210;-96
2022/12/27 13:09:55;;;;;;;8.27;3.33;;;10.80;91.90;;;;;;5038376;28;20573;-96
2022/12/27 13:12:52;;;;;;;8.00;3.17;;;10.80;91.90;;;;;;5008116;28;20191;-95
2022/12/27 13:15:41;;;;;;;7.63;3.57;;;10.80;92.00;;;;;;5017658;28;20225;-95
2022/12/27 13:18:31;;;;;;;10.77;3.40;;;10.80;91.80;;;;;;5025079;28;20201;-96
2022/12/27 13:24:11;;;;;;;10.73;3.97;;;10.80;91.80;;;;;;5020436;28;20206;-95
2022/12/27 13:26:52;;;;;;;6.90;3.20;;;10.90;91.80;;;;;;5022154;28;20197;-95
2022/12/27 13:29:55;;;;;;;11.10;3.17;;;10.90;91.90;;;;;;5016754;28;20213;-96
2022/12/27 13:32:36;;;;;;;10.47;3.93;;;10.90;91.90;;;;;;4987644;28;20222;-95
2022/12/27 13:35:28;;;;;;;10.57;3.30;;;10.90;91.80;;;;;;5023362;28;20213;-95
2022/12/27 13:38:16;;;;;;;8.80;3.50;;;11.00;91.90;;;;;;5021033;28;20260;-96
2022/12/27 13:41:08;;;;;;;13.23;3.73;;;11.00;91.90;;;;;;5036270;28;20221;-95
2022/12/27 13:43:55;;;;;;;8.33;3.10;;;11.00;91.80;;;;;;5029215;28;20209;-95
2022/12/27 13:46:53;;;;;;;8.80;3.40;;;11.10;91.90;;;;;;5015104;28;20210;-96
2022/12/27 13:49:49;;;;;;;7.67;2.97;;;11.10;91.80;;;;;;5028642;28;20252;-96
2022/12/27 13:52:46;;;;;;;8.83;2.83;;;11.10;91.80;;;;;;5038645;28;20228;-96
2022/12/27 13:56:00;;;;;;;11.33;3.63;;;11.10;91.80;;;;;;5014451;28;20214;-95
2022/12/27 13:58:49;;;;;;;10.77;3.20;;;11.20;91.80;;;;;;5015278;28;20293;-95
2022/12/27 14:01:46;;;;;;;9.27;2.73;;;11.10;91.70;;;;;;5011543;28;20216;-96
2022/12/27 14:04:50;;;;;;;6.90;2.40;;;11.20;91.50;;;;;;5006710;28;20268;-95
2022/12/27 14:07:42;;;;;;;7.97;3.37;;;11.20;91.50;;;;;;4996500;28;20260;-96
2022/12/27 14:10:45;;;;;;;14.33;4.40;;;11.30;91.40;;;;;;5019332;28;20301;-95
2022/12/27 14:13:21;;;;;;;5.00;2.30;;;11.30;91.10;;;;;;5018249;28;20234;-95
2022/12/27 14:16:30;;;;;;;7.53;2.33;;;11.30;91.00;;;;;;5017896;28;20297;-96
2022/12/27 14:19:14;;;;;;;14.40;4.10;;;11.40;91.10;;;;;;4995227;28;20252;-96
2022/12/27 14:22:03;;;;;;;14.83;4.30;;;11.40;91.00;;;;;;5017625;28;20713;-96
2022/12/27 14:25:10;;;;;;;7.73;2.87;;;11.50;90.70;;;;;;4999333;28;20281;-96
2022/12/27 14:28:32;;;;;;;8.00;2.70;;;11.50;90.20;;;;;;5013339;28;20238;-96
2022/12/27 14:31:50;;;;;;;9.77;3.27;;;11.60;90.10;;;;;;4906242;29;20209;-96
2022/12/27 14:35:08;;;;;;;6.70;2.33;;;11.60;89.70;;;;;;5018315;28;20211;-95
2022/12/27 14:38:21;;;;;;;7.43;2.63;;;11.60;89.10;;;;;;4956880;28;20306;-96
2022/12/27 14:41:18;;;;;;;9.50;2.97;;;11.60;88.90;;;;;;5013889;28;20282;-96
2022/12/27 14:44:33;;;;;;;8.37;3.23;;;11.70;88.10;;;;;;5002196;28;20215;-96
2022/12/27 14:51:34;;;;;;;7.87;3.23;;;11.70;88.40;;;;;;5026502;28;20209;-95
2022/12/27 14:54:42;;;;;;;9.97;3.23;;;11.70;88.60;;;;;;5011397;28;20276;-96
2022/12/27 14:57:27;;;;;;;8.00;3.23;;;11.70;88.60;;;;;;4967644;28;20199;-94
2022/12/27 15:00:07;;;;;;;7.50;2.60;;;11.70;88.30;;;;;;4974614;28;20305;-95
2022/12/27 15:03:04;;;;;;;8.57;3.17;;;11.70;88.20;;;;;;5013717;28;20225;-95
2022/12/27 15:05:47;;;;;;;6.30;2.47;;;11.70;87.70;;;;;;4978157;28;20217;-96
2022/12/27 15:08:35;;;;;;;5.80;2.43;;;11.70;88.10;;;;;;5000926;28;20232;-96
2022/12/27 15:11:31;;;;;;;12.00;3.13;;;11.60;87.50;;;;;;5016611;28;20209;-95
2022/12/27 15:14:14;;;;;;;9.40;3.60;;;11.60;87.20;;;;;;5016438;28;20217;-95
2022/12/27 15:16:54;;;;;;;8.40;2.87;;;11.60;87.40;;;;;;5016865;28;20209;-95
2022/12/27 15:19:46;;;;;;;8.53;2.63;;;11.60;87.20;;;;;;5018307;28;20210;-95
2022/12/27 15:22:27;;;;;;;7.43;2.80;;;11.60;87.40;;;;;;5015965;28;20279;-96
2022/12/27 15:25:25;;;;;;;4.67;2.23;;;11.60;86.90;;;;;;5015288;28;20290;-95
2022/12/27 15:28:14;;;;;;;7.60;2.70;;;11.60;86.80;;;;;;4999604;28;20226;-96
2022/12/27 15:30:56;;;;;;;6.70;2.83;;;11.50;86.60;;;;;;4997047;28;20269;-95
2022/12/27 15:33:37;;;;;;;8.77;2.63;;;11.50;86.70;;;;;;4997693;28;20234;-95
2022/12/27 15:36:10;;;;;;;11.13;3.13;;;11.50;86.50;;;;;;4998711;28;20299;-96
2022/12/27 15:39:03;;;;;;;5.83;2.27;;;11.50;86.40;;;;;;5010887;28;20205;-95
2022/12/27 15:41:59;;;;;;;4.93;2.43;;;11.40;85.50;;;;;;5020495;28;20603;-96
2022/12/27 15:44:57;;;;;;;10.77;2.93;;;11.40;86.20;;;;;;5020409;28;20205;-96
2022/12/27 15:47:52;;;;;;;5.20;2.27;;;11.30;85.60;;;;;;5019746;28;20252;-95
2022/12/27 15:50:56;;;;;;;7.53;2.67;;;11.40;85.70;;;;;;5019941;28;20503;-96
2022/12/27 15:54:00;;;;;;;8.03;2.93;;;11.30;86.00;;;;;;5015530;28;20208;-95
2022/12/27 15:56:50;;;;;;;6.80;2.67;;;11.30;85.50;;;;;;4998646;28;20674;-96
2022/12/27 16:00:01;;;;;;;10.97;3.30;;;11.30;86.00;;;;;;4998074;28;20221;-96
2022/12/27 16:02:39;;;;;;;9.30;2.97;;;11.30;85.90;;;;;;4987367;28;20210;-96
2022/12/27 16:05:51;;;;;;;10.27;3.63;;;11.30;86.00;;;;;;5007559;28;20207;-95
2022/12/27 16:08:41;;;;;;;10.40;3.10;;;11.20;85.70;;;;;;5016330;28;20232;-96
2022/12/27 16:11:17;;;;;;;7.00;2.73;;;11.20;85.70;;;;;;5012975;28;20222;-96
2022/12/27 16:14:13;;;;;;;8.10;2.67;;;11.20;85.90;;;;;;5027693;28;20232;-96
2022/12/27 16:17:07;;;;;;;10.20;3.17;;;11.10;85.80;;;;;;5016783;28;20576;-96
2022/12/27 16:23:01;;;;;;;7.50;3.53;;;11.10;85.30;;;;;;4998807;28;20683;-96
2022/12/27 16:25:36;;;;;;;10.77;3.20;;;11.00;85.60;;;;;;5010467;28;20217;-95
2022/12/27 16:28:07;;;;;;;6.70;2.87;;;11.00;85.40;;;;;;5012614;28;20226;-96
2022/12/27 16:30:49;;;;;;;6.63;2.87;;;11.00;86.00;;;;;;5024893;28;20221;-96
2022/12/27 16:33:47;;;;;;;10.23;3.37;;;11.00;85.80;;;;;;5026216;28;20207;-96
2022/12/27 16:36:28;;;;;;;12.33;3.47;;;10.90;85.90;;;;;;4989973;28;20228;-96
2022/12/27 16:39:39;;;;;;;10.47;2.90;;;10.90;86.00;;;;;;5010733;28;20234;-96
2022/12/27 16:42:11;;;;;;;16.40;4.17;;;10.90;86.00;;;;;;5014403;28;20209;-96
2022/12/27 16:45:01;;;;;;;8.37;3.10;;;10.90;86.00;;;;;;5029040;28;20216;-96
2022/12/27 16:48:11;;;;;;;7.87;2.53;;;10.80;86.10;;;;;;5024026;28;20225;-96
2022/12/27 16:51:16;;;;;;;8.70;3.10;;;10.80;86.30;;;;;;5018342;28;20283;-96
2022/12/27 16:54:30;;;;;;;8.20;2.77;;;10.80;86.30;;;;;;5008319;28;20202;-95
2022/12/27 16:57:41;;;;;;;9.57;3.60;;;10.80;86.40;;;;;;5027740;28;20689;-96
2022/12/27 17:04:02;;;;;;;7.57;3.20;;;10.70;86.20;;;;;;4957657;29;20245;-96
2022/12/27 17:06:53;;;;;;;11.60;3.60;;;10.70;86.20;;;;;;5009037;28;20206;-96
2022/12/27 17:13:24;;;;;;;11.87;4.03;;;10.70;86.20;;;;;;4964818;28;20188;-96
2022/12/27 17:16:01;;;;;;;8.70;3.43;;;10.60;86.10;;;;;;4959321;28;20270;-95
2022/12/27 17:35:30;;;;;;;7.03;3.30;;;10.50;85.60;;;;;;4891870;29;20209;-96
2022/12/27 18:02:50;;;;;;;9.83;3.40;;;10.30;85.20;;;;;;5010063;28;20212;-96
2022/12/27 18:12:22;;;;;;;5.33;2.57;;;10.30;84.90;;;;;;4952663;29;20215;-96
2022/12/27 18:18:28;;;;;;;9.93;3.53;;;10.20;84.90;;;;;;4960703;28;20227;-95
2022/12/27 18:21:06;;;;;;;9.00;3.80;;;10.20;84.50;;;;;;4959408;28;20211;-95
2022/12/27 18:30:12;;;;;;;10.90;4.20;;;10.10;84.60;;;;;;4958729;28;20232;-95
2022/12/27 18:42:39;;;;;;;10.60;4.10;;;10.10;84.20;;;;;;5030328;28;20206;-96
2022/12/27 18:51:55;;;;;;;14.93;4.20;;;10.10;84.20;;;;;;4994161;28;20232;-96
2022/12/27 18:57:45;;;;;;;8.53;3.33;;;10.10;84.40;;;;;;5020464;28;20297;-95
2022/12/27 19:00:47;;;;;;;8.53;3.27;;;10.10;84.50;;;;;;5025478;28;20219;-95
2022/12/27 19:06:25;;;;;;;9.33;3.47;;;10.10;84.60;;;;;;5018305;28;20236;-96
2022/12/27 19:18:41;;;;;;;12.40;4.20;;;10.10;84.70;;;;;;5020946;28;20228;-95
2022/12/27 19:34:22;;;;;;;10.97;3.53;;;10.10;84.60;;;;;;4967078;28;20240;-96
2022/12/27 19:36:51;;;;;;;6.23;2.80;;;10.10;85.10;;;;;;4976431;28;20688;-95
2022/12/27 19:39:59;;;;;;;9.13;3.63;;;10.10;84.20;;;;;;5021129;28;20732;-96
2022/12/27 19:46:20;;;;;;;7.73;2.77;;;10.10;84.20;;;;;;4945033;29;20220;-95
2022/12/27 19:49:13;;;;;;;11.60;3.90;;;10.10;84.40;;;;;;4971082;28;20690;-96
2022/12/27 19:52:01;;;;;;;12.37;3.13;;;10.20;84.50;;;;;;5001411;28;20213;-96
2022/12/27 19:54:36;;;;;;;7.43;2.87;;;10.20;84.30;;;;;;5018429;28;20210;-96
2022/12/27 20:00:29;;;;;;;10.97;4.00;;;10.20;84.30;;;;;;5016770;28;20239;-96
2022/12/27 20:03:32;;;;;;;9.70;3.03;;;10.20;84.10;;;;;;5000946;28;20215;-96
2022/12/27 20:06:10;;;;;;;10.43;3.57;;;10.20;84.00;;;;;;5018478;28;20213;-96
2022/12/27 20:09:20;;;;;;;10.20;3.50;;;10.20;84.20;;;;;;5021303;28;20604;-96
2022/12/27 20:11:50;;;;;;;23.03;6.90;;;10.20;84.10;;;;;;4927548;28;20235;-96
2022/12/27 20:14:24;;;;;;;6.77;2.87;;;10.20;84.10;;;;;;4999519;28;20213;-95
2022/12/27 20:17:05;;;;;;;11.33;3.87;;;10.20;83.90;;;;;;4996771;28;20209;-96
2022/12/27 20:19:42;;;;;;;9.23;3.63;;;10.20;84.00;;;;;;5003498;28;20209;-96
2022/12/27 20:22:21;;;;;;;9.37;3.83;;;10.30;83.80;;;;;;5017269;28;20903;-96
2022/12/27 20:25:13;;;;;;;13.27;4.47;;;10.30;84.10;;;;;;5015470;28;20206;-95
2022/12/27 20:28:14;;;;;;;13.83;3.70;;;10.30;83.80;;;;;;5014266;28;20673;-96
2022/12/27 20:34:29;;;;;;;9.80;3.17;;;10.30;84.10;;;;;;5017244;28;20240;-96
2022/12/27 20:37:11;;;;;;;9.30;3.13;;;10.30;84.00;;;;;;5021749;28;20653;-96
2022/12/27 20:39:46;;;;;;;10.17;3.67;;;10.30;83.90;;;;;;5006091;28;20224;-95
2022/12/27 20:42:27;;;;;;;6.93;3.07;;;10.30;83.90;;;;;;5039671;28;20207;-96
2022/12/27 20:45:11;;;;;;;9.73;3.97;;;10.30;83.90;;;;;;5033202;28;20216;-96
2022/12/27 20:47:54;;;;;;;16.23;4.70;;;10.30;83.80;;;;;;5025776;28;20287;-96
2022/12/27 20:51:16;;;;;;;12.33;3.70;;;10.30;83.70;;;;;;5015069;28;20233;-96
2022/12/27 20:54:05;;;;;;;12.40;4.27;;;10.30;84.00;;;;;;5008344;28;20224;-96
2022/12/27 20:56:51;;;;;;;10.10;4.27;;;10.30;83.90;;;;;;5001532;28;20639;-96
2022/12/27 20:59:37;;;;;;;10.40;3.43;;;10.30;84.20;;;;;;5017475;28;20233;-96
2022/12/27 21:05:25;;;;;;;12.00;3.90;;;10.30;84.20;;;;;;5023239;28;20273;-95
2022/12/27 21:07:57;;;;;;;13.47;4.37;;;10.30;84.40;;;;;;5014019;28;20267;-95
2022/12/27 21:14:26;;;;;;;7.33;3.23;;;10.30;84.40;;;;;;5026406;28;20209;-96
2022/12/27 21:17:25;;;;;;;9.70;3.87;;;10.30;84.50;;;;;;5024520;28;20205;-94
2022/12/27 21:20:34;;;;;;;12.47;4.00;;;10.30;84.50;;;;;;5030104;28;20205;-96
2022/12/27 21:23:42;;;;;;;12.87;4.67;;;10.30;84.80;;;;;;5013257;28;20213;-96
2022/12/27 21:26:20;;;;;;;10.83;3.93;;;10.30;84.90;;;;;;5023483;28;20228;-95
2022/12/27 21:32:00;;;;;;;11.03;4.13;;;10.30;85.30;;;;;;5043539;23;20280;-95
2022/12/27 21:35:01;;;;;;;8.23;3.83;;;10.30;85.10;;;;;;5024789;28;20221;-96
2022/12/27 21:38:14;;;;;;;;;;;;;;;;;;;;;
2022/12/27 21:41:21;;;;;;;;;;;;;;;;;;;;;
2022/12/27 21:44:28;;;;;;;;;;;;;;;;;;;;;
2022/12/27 21:47:25;;;;;;;9.80;3.60;;;10.40;86.00;;;;;;5046594;28;20211;-96
2022/12/27 21:50:05;;;;;;;6.73;3.00;;;10.40;86.10;;;;;;5033517;28;20213;-94
2022/12/27 21:52:38;;;;;;;9.17;3.70;;;10.40;86.30;;;;;;5044194;28;20219;-95
2022/12/27 21:58:25;;;;;;;10.13;3.67;;;10.40;86.50;;;;;;5045251;28;20247;-95
2022/12/27 22:03:48;;;;;;;5.17;3.17;;;10.40;86.90;;;;;;5039540;28;20259;-96
2022/12/27 22:06:41;;;;;;;8.70;3.50;;;10.40;87.30;;;;;;5040741;28;20614;-95
2022/12/27 22:09:46;;;;;;;8.60;3.57;;;10.40;87.60;;;;;;5028106;28;20283;-96
2022/12/27 22:13:04;;;;;;;10.03;3.83;;;10.40;87.70;;;;;;5023707;28;20224;-95
2022/12/27 22:16:19;;;;;;;6.10;3.50;;;10.50;87.80;;;;;;4964288;28;20210;-95
2022/12/27 22:18:58;;;;;;;8.57;3.73;;;10.50;87.80;;;;;;5025924;28;20212;-92
2022/12/27 22:22:09;;;;;;;14.90;4.73;;;10.50;88.20;;;;;;5027088;28;20192;-96
2022/12/27 22:24:40;;;;;;;7.93;3.77;;;10.50;88.20;;;;;;5041706;28;20279;-95
2022/12/27 22:29:57;;;;;;;5.47;3.53;;;10.50;88.20;;;;;;5027401;28;20229;-95
2022/12/27 22:38:46;;;;;;;10.43;4.10;;;10.50;88.60;;;;;;5004390;28;20222;-96
2022/12/27 22:41:32;;;;;;;11.43;4.07;;;10.50;89.10;;;;;;5006009;28;20234;-95
2022/12/27 22:46:50;;;;;;;10.70;4.50;;;10.50;89.40;;;;;;5004847;28;20265;-96
2022/12/27 22:49:19;;;;;;;10.90;4.07;;;10.50;89.20;;;;;;5002221;28;20214;-95
2022/12/27 22:52:19;;;;;;;8.83;3.90;;;10.50;89.50;;;;;;5015330;28;20229;-94
2022/12/27 22:54:55;;;;;;;10.73;4.13;;;10.50;89.40;;;;;;5020051;28;20294;-96
2022/12/27 22:57:44;;;;;;;8.43;4.60;;;10.50;89.40;;;;;;5009607;28;20592;-96
2022/12/27 23:00:15;;;;;;;8.27;3.90;;;10.50;89.60;;;;;;5010003;28;20214;-94
2022/12/27 23:05:54;;;;;;;11.50;4.53;;;10.50;90.00;;;;;;5009698;28;20270;-95
2022/12/27 23:08:41;;;;;;;6.30;3.30;;;10.50;89.80;;;;;;5001377;28;20249;-95
2022/12/27 23:11:15;;;;;;;11.77;4.90;;;10.50;89.90;;;;;;5004475;28;20297;-95
2022/12/27 23:14:04;;;;;;;10.13;4.77;;;10.60;90.10;;;;;;5005895;28;20214;-96
2022/12/27 23:16:41;;;;;;;7.37;3.70;;;10.50;90.20;;;;;;5007915;28;20206;-95
2022/12/27 23:22:30;;;;;;;11.10;4.57;;;10.60;90.10;;;;;;5003399;28;20206;-95
2022/12/27 23:25:05;;;;;;;11.80;5.47;;;10.60;90.20;;;;;;5017283;28;20194;-96
2022/12/27 23:27:39;;;;;;;6.27;3.97;;;10.60;90.60;;;;;;5011940;28;20282;-96
2022/12/27 23:30:31;;;;;;;10.90;4.50;;;10.60;90.30;;;;;;5003898;28;20321;-96
2022/12/27 23:33:02;;;;;;;9.13;4.30;;;10.60;90.20;;;;;;5015719;28;20198;-95
2022/12/27 23:35:33;;;;;;;8.47;4.60;;;10.70;90.20;;;;;;5018134;28;20218;-94
2022/12/27 23:38:23;;;;;;;9.87;4.63;;;10.70;90.20;;;;;;5015838;28;20224;-96
2022/12/27 23:41:03;;;;;;;7.70;4.20;;;10.70;90.60;;;;;;5012219;28;20225;-96
2022/12/27 23:43:41;;;;;;;8.27;4.33;;;10.70;90.70;;;;;;4996155;28;20240;-96